createdAt,value
2018-07-08T00:01:04.881Z,3.35
2018-07-08T00:03:33.052Z,4.10
2018-07-08T00:06:01.135Z,3.80
2018-07-08T00:08:29.227Z,3.57
2018-07-08T00:10:58.976Z,3.57
2018-07-08T00:13:27.940Z,3.87
2018-07-08T00:15:56.067Z,3.13
2018-07-08T00:18:24.843Z,2.83
2018-07-08T00:20:54.137Z,2.83
2018-07-08T00:23:22.936Z,3.33
2018-07-08T00:25:51.036Z,3.47
2018-07-08T00:28:19.182Z,3.23
2018-07-08T00:30:47.297Z,3.70
2018-07-08T00:33:15.384Z,3.52
2018-07-08T00:35:43.464Z,3.33
2018-07-08T00:38:11.624Z,3.20
2018-07-08T00:40:39.730Z,3.03
2018-07-08T00:43:07.825Z,3.27
2018-07-08T00:45:35.910Z,3.20
2018-07-08T00:48:04.013Z,3.45
2018-07-08T00:50:32.129Z,2.80
2018-07-08T00:53:00.264Z,3.10
2018-07-08T00:55:28.372Z,3.03
2018-07-08T00:57:56.456Z,2.97
2018-07-08T01:00:29.344Z,3.23
2018-07-08T01:02:58.195Z,3.17
2018-07-08T01:05:26.485Z,2.53
2018-07-08T01:07:54.585Z,3.03
2018-07-08T01:10:22.764Z,2.90
2018-07-08T01:12:50.877Z,2.80
2018-07-08T01:15:18.971Z,3.10
2018-07-08T01:17:47.039Z,3.45
2018-07-08T01:20:15.133Z,2.87
2018-07-08T01:22:43.285Z,2.75
2018-07-08T01:25:14.782Z,2.60
2018-07-08T01:27:42.866Z,3.10
2018-07-08T01:30:12.467Z,8.48
2018-07-08T01:32:40.613Z,3.33
2018-07-08T01:35:08.704Z,3.37
2018-07-08T01:37:36.811Z,3.23
2018-07-08T01:40:05.171Z,2.87
2018-07-08T01:42:33.259Z,2.97
2018-07-08T01:45:01.710Z,3.00
2018-07-08T01:47:29.874Z,3.30
2018-07-08T01:49:58.487Z,3.50
2018-07-08T01:52:26.854Z,3.00
2018-07-08T01:54:55.635Z,3.30
2018-07-08T01:57:24.570Z,3.13
2018-07-08T01:59:53.007Z,2.90
2018-07-08T02:02:21.709Z,3.50
2018-07-08T02:04:50.399Z,3.13
2018-07-08T02:07:18.527Z,3.10
2018-07-08T02:09:47.154Z,3.37
2018-07-08T02:12:15.435Z,3.00
2018-07-08T02:14:43.820Z,3.63
2018-07-08T02:17:11.966Z,3.60
2018-07-08T02:19:40.093Z,3.57
2018-07-08T02:22:08.182Z,3.70
2018-07-08T02:24:36.255Z,3.15
2018-07-08T02:27:04.497Z,3.40
2018-07-08T02:29:32.951Z,3.70
2018-07-08T02:32:01.040Z,3.10
2018-07-08T02:34:29.140Z,3.67
2018-07-08T02:36:57.380Z,3.00
2018-07-08T02:39:25.567Z,3.83
2018-07-08T02:41:53.949Z,3.37
2018-07-08T02:44:22.186Z,3.70
2018-07-08T02:46:50.427Z,3.30
2018-07-08T02:49:19.220Z,3.80
2018-07-08T02:51:47.860Z,3.43
2018-07-08T02:54:16.627Z,4.17
2018-07-08T02:56:44.751Z,3.93
2018-07-08T02:59:12.958Z,3.40
2018-07-08T03:01:41.049Z,3.15
2018-07-08T03:04:09.131Z,3.30
2018-07-08T03:06:37.218Z,3.37
2018-07-08T03:09:06.371Z,3.42
2018-07-08T03:11:34.618Z,3.70
2018-07-08T03:14:02.779Z,3.73
2018-07-08T03:16:30.935Z,3.10
2018-07-08T03:18:59.116Z,3.53
2018-07-08T03:21:27.378Z,3.53
2018-07-08T03:23:55.470Z,3.80
2018-07-08T03:26:23.573Z,3.30
2018-07-08T03:28:51.667Z,3.27
2018-07-08T03:31:19.744Z,3.57
2018-07-08T03:33:47.840Z,3.30
2018-07-08T03:36:16.554Z,3.42
2018-07-08T03:38:44.733Z,4.00
2018-07-08T03:41:12.836Z,3.08
2018-07-08T03:43:40.939Z,3.35
2018-07-08T03:46:09.118Z,2.70
2018-07-08T03:48:37.521Z,3.30
2018-07-08T03:51:06.231Z,2.67
2018-07-08T03:53:34.295Z,3.10
2018-07-08T03:56:02.449Z,2.90
2018-07-08T03:58:31.071Z,2.83
2018-07-08T04:00:59.258Z,2.97
2018-07-08T04:03:27.383Z,3.33
2018-07-08T04:05:55.783Z,2.80
2018-07-08T04:08:23.831Z,3.43
2018-07-08T04:10:52.131Z,2.83
2018-07-08T04:13:20.234Z,3.20
2018-07-08T04:15:48.319Z,3.10
2018-07-08T04:18:16.519Z,3.00
2018-07-08T04:20:44.591Z,3.30
2018-07-08T04:23:12.635Z,3.07
2018-07-08T04:25:40.685Z,3.17
2018-07-08T04:28:08.787Z,2.90
2018-07-08T04:30:36.836Z,3.40
2018-07-08T04:33:04.896Z,3.20
2018-07-08T04:35:32.947Z,2.90
2018-07-08T04:38:01.009Z,2.80
2018-07-08T04:40:29.284Z,3.20
2018-07-08T04:42:57.379Z,2.97
2018-07-08T04:45:25.495Z,2.40
2018-07-08T04:47:53.527Z,3.40
2018-07-08T04:50:21.602Z,2.93
2018-07-08T04:52:49.652Z,3.57
2018-07-08T04:55:17.682Z,2.70
2018-07-08T04:57:45.779Z,2.70
2018-07-08T05:00:13.852Z,2.80
2018-07-08T05:02:41.926Z,2.67
2018-07-08T05:05:09.983Z,2.87
2018-07-08T05:07:38.051Z,3.27
2018-07-08T05:10:06.167Z,2.83
2018-07-08T05:12:34.265Z,2.92
2018-07-08T05:15:02.624Z,3.20
2018-07-08T05:17:30.686Z,2.93
2018-07-08T05:19:59.318Z,3.30
2018-07-08T05:22:27.399Z,2.67
2018-07-08T05:24:55.471Z,2.77
2018-07-08T05:27:23.548Z,2.93
2018-07-08T05:29:51.632Z,3.03
2018-07-08T05:32:19.683Z,2.43
2018-07-08T05:34:47.752Z,3.17
2018-07-08T05:37:15.815Z,2.70
2018-07-08T05:39:43.881Z,2.00
2018-07-08T05:42:11.949Z,2.92
2018-07-08T05:44:40.021Z,2.40
2018-07-08T05:47:08.076Z,2.83
2018-07-08T05:49:36.156Z,2.63
2018-07-08T05:52:04.210Z,2.70
2018-07-08T05:54:32.288Z,2.73
2018-07-08T05:57:00.399Z,2.57
2018-07-08T05:59:28.493Z,2.57
2018-07-08T06:01:56.560Z,2.40
2018-07-08T06:04:24.622Z,2.60
2018-07-08T06:06:52.695Z,2.77
2018-07-08T06:09:20.775Z,2.13
2018-07-08T06:11:48.850Z,2.30
2018-07-08T06:14:16.882Z,2.90
2018-07-08T06:16:44.964Z,2.47
2018-07-08T06:19:13.043Z,2.50
2018-07-08T06:21:41.127Z,2.35
2018-07-08T06:24:09.197Z,2.47
2018-07-08T06:26:37.254Z,2.93
2018-07-08T06:29:05.475Z,2.47
2018-07-08T06:31:33.647Z,2.40
2018-07-08T06:34:01.714Z,2.20
2018-07-08T06:36:29.779Z,2.50
2018-07-08T06:38:57.908Z,2.10
2018-07-08T06:41:26.026Z,2.27
2018-07-08T06:43:54.140Z,2.17
2018-07-08T06:46:22.238Z,2.47
2018-07-08T06:48:50.311Z,2.63
2018-07-08T06:51:18.388Z,2.40
2018-07-08T06:53:46.574Z,2.10
2018-07-08T06:56:14.730Z,2.37
2018-07-08T06:58:42.799Z,2.25
2018-07-08T07:01:10.871Z,1.90
2018-07-08T07:03:38.987Z,2.57
2018-07-08T07:06:07.071Z,2.08
2018-07-08T07:08:35.167Z,2.60
2018-07-08T07:11:03.236Z,1.77
2018-07-08T07:13:31.316Z,2.30
2018-07-08T07:15:59.925Z,1.90
2018-07-08T07:18:28.008Z,2.40
2018-07-08T07:20:56.065Z,2.80
2018-07-08T07:23:24.131Z,2.10
2018-07-08T07:25:52.190Z,2.10
2018-07-08T07:28:20.271Z,2.17
2018-07-08T07:30:48.335Z,2.07
2018-07-08T07:33:16.392Z,2.00
2018-07-08T07:35:44.455Z,2.23
2018-07-08T07:38:12.517Z,2.73
2018-07-08T07:40:40.575Z,2.10
2018-07-08T07:43:08.635Z,2.40
2018-07-08T07:45:36.703Z,2.87
2018-07-08T07:48:05.525Z,2.33
2018-07-08T07:50:33.583Z,2.10
2018-07-08T07:53:01.656Z,2.23
2018-07-08T07:55:30.013Z,2.03
2018-07-08T07:57:58.073Z,2.17
2018-07-08T08:00:26.139Z,2.00
2018-07-08T08:02:54.212Z,2.03
2018-07-08T08:05:22.292Z,2.20
2018-07-08T08:07:50.453Z,2.07
2018-07-08T08:10:18.575Z,1.77
2018-07-08T08:12:46.647Z,1.93
2018-07-08T08:15:14.723Z,1.77
2018-07-08T08:17:42.794Z,1.80
2018-07-08T08:20:11.131Z,2.22
2018-07-08T08:22:39.188Z,2.42
2018-07-08T08:25:07.279Z,2.25
2018-07-08T08:27:35.354Z,2.10
2018-07-08T08:30:03.424Z,2.20
2018-07-08T08:32:31.498Z,2.30
2018-07-08T08:35:01.402Z,2.20
2018-07-08T08:38:00.764Z,1.77
2018-07-08T08:40:30.111Z,1.73
2018-07-08T08:42:58.207Z,1.93
2018-07-08T08:45:27.688Z,2.00
2018-07-08T08:47:55.763Z,2.03
2018-07-08T08:50:23.827Z,2.00
2018-07-08T08:52:51.914Z,2.03
2018-07-08T08:55:20.048Z,1.70
2018-07-08T08:57:48.171Z,2.50
2018-07-08T09:00:18.272Z,2.33
2018-07-08T09:02:46.392Z,2.20
2018-07-08T09:05:14.469Z,2.50
2018-07-08T09:07:42.617Z,2.40
2018-07-08T09:10:10.674Z,2.65
2018-07-08T09:12:38.757Z,2.27
2018-07-08T09:15:06.844Z,2.53
2018-07-08T09:17:34.912Z,2.20
2018-07-08T09:20:03.010Z,2.40
2018-07-08T09:22:31.103Z,2.43
2018-07-08T09:24:59.206Z,2.40
2018-07-08T09:27:27.376Z,2.23
2018-07-08T09:29:55.450Z,1.90
2018-07-08T09:32:23.533Z,2.10
2018-07-08T09:34:51.620Z,2.10
2018-07-08T09:37:19.708Z,2.77
2018-07-08T09:39:48.096Z,2.20
2018-07-08T09:42:16.159Z,2.47
2018-07-08T09:44:44.348Z,2.40
2018-07-08T09:47:13.293Z,2.60
2018-07-08T09:49:41.398Z,2.13
2018-07-08T09:52:09.492Z,2.13
2018-07-08T09:54:37.581Z,2.55
2018-07-08T09:57:05.689Z,2.60
2018-07-08T09:59:33.761Z,2.17
2018-07-08T10:02:01.823Z,2.37
2018-07-08T10:04:30.592Z,2.70
2018-07-08T10:06:58.771Z,2.20
2018-07-08T10:09:26.823Z,2.60
2018-07-08T10:11:54.887Z,2.40
2018-07-08T10:14:24.137Z,2.10
2018-07-08T10:16:52.205Z,2.20
2018-07-08T10:19:20.920Z,2.20
2018-07-08T10:21:48.997Z,2.20
2018-07-08T10:24:17.139Z,1.87
2018-07-08T10:26:46.657Z,2.00
2018-07-08T10:29:17.282Z,1.87
2018-07-08T10:31:51.400Z,2.17
2018-07-08T10:34:19.759Z,1.83
2018-07-08T10:36:47.899Z,2.08
2018-07-08T10:39:16.554Z,2.30
2018-07-08T10:41:44.643Z,2.10
2018-07-08T10:44:13.072Z,2.47
2018-07-08T10:46:41.683Z,1.97
2018-07-08T10:49:10.146Z,2.10
2018-07-08T10:51:38.275Z,1.57
2018-07-08T10:54:06.819Z,2.12
2018-07-08T10:56:34.894Z,2.20
2018-07-08T10:59:02.967Z,1.60
2018-07-08T11:01:31.140Z,1.90
2018-07-08T11:03:59.229Z,1.90
2018-07-08T11:06:27.291Z,2.17
2018-07-08T11:08:55.358Z,1.40
2018-07-08T11:11:23.475Z,1.40
2018-07-08T11:13:51.539Z,1.73
2018-07-08T11:16:19.622Z,2.10
2018-07-08T11:18:47.740Z,1.93
2018-07-08T11:21:15.860Z,1.55
2018-07-08T11:23:43.959Z,1.67
2018-07-08T11:26:12.087Z,1.83
2018-07-08T11:28:40.277Z,2.08
2018-07-08T11:31:08.602Z,1.90
2018-07-08T11:33:36.695Z,1.60
2018-07-08T11:36:04.792Z,1.83
2018-07-08T11:38:33.154Z,1.90
2018-07-08T11:41:01.270Z,1.90
2018-07-08T11:43:29.915Z,1.53
2018-07-08T11:45:57.984Z,1.90
2018-07-08T11:48:26.131Z,1.60
2018-07-08T11:50:54.247Z,1.87
2018-07-08T11:53:22.364Z,1.70
2018-07-08T11:55:50.420Z,1.60
2018-07-08T11:58:18.515Z,1.10
2018-07-08T12:00:46.590Z,1.00
2018-07-08T12:03:14.888Z,1.20
2018-07-08T12:05:43.085Z,1.30
2018-07-08T12:08:11.504Z,1.17
2018-07-08T12:10:40.046Z,1.40
2018-07-08T12:13:08.292Z,1.13
2018-07-08T12:15:36.436Z,1.30
2018-07-08T12:18:04.879Z,1.10
2018-07-08T12:20:33.461Z,0.90
2018-07-08T12:23:01.524Z,1.10
2018-07-08T12:25:29.614Z,0.70
2018-07-08T12:27:57.671Z,0.97
2018-07-08T12:30:25.778Z,0.87
2018-07-08T12:32:53.895Z,1.07
2018-07-08T12:35:22.063Z,1.00
2018-07-08T12:37:50.136Z,0.90
2018-07-08T12:40:18.215Z,0.70
2018-07-08T12:42:46.271Z,0.85
2018-07-08T12:45:14.389Z,1.23
2018-07-08T12:47:42.455Z,1.10
2018-07-08T12:50:10.528Z,2.40
2018-07-08T12:52:38.846Z,1.50
2018-07-08T12:55:06.914Z,1.17
2018-07-08T12:57:35.401Z,1.60
2018-07-08T13:00:03.880Z,1.40
2018-07-08T13:02:31.968Z,1.60
2018-07-08T13:05:00.734Z,1.27
2018-07-08T13:07:28.828Z,1.12
2018-07-08T13:09:56.973Z,1.50
2018-07-08T13:12:25.074Z,1.40
2018-07-08T13:14:53.124Z,1.10
2018-07-08T13:17:21.191Z,1.20
2018-07-08T13:19:49.365Z,1.00
2018-07-08T13:22:17.499Z,1.15
2018-07-08T13:24:45.650Z,0.87
2018-07-08T13:27:13.899Z,0.82
2018-07-08T13:29:41.966Z,1.55
2018-07-08T13:32:10.153Z,0.70
2018-07-08T13:34:38.334Z,0.78
2018-07-08T13:37:06.479Z,0.93
2018-07-08T13:39:34.628Z,1.00
2018-07-08T13:42:02.710Z,3.05
2018-07-08T13:44:31.668Z,1.12
2018-07-08T13:46:59.808Z,2.62
2018-07-08T13:49:27.940Z,7.15
2018-07-08T13:51:55.995Z,2.33
2018-07-08T13:54:24.099Z,2.35
2018-07-08T13:56:52.186Z,2.42
2018-07-08T13:59:20.312Z,1.10
2018-07-08T14:01:48.732Z,1.27
2018-07-08T14:04:16.830Z,3.58
2018-07-08T14:06:44.909Z,1.80
2018-07-08T14:09:13.028Z,1.32
2018-07-08T14:11:41.039Z,1.80
2018-07-08T14:14:09.188Z,1.17
2018-07-08T14:16:37.212Z,1.00
2018-07-08T14:19:05.354Z,2.67
2018-07-08T14:21:33.852Z,2.92
2018-07-08T14:24:01.947Z,2.62
2018-07-08T14:26:29.995Z,1.42
2018-07-08T14:28:58.164Z,0.93
2018-07-08T14:31:26.275Z,1.80
2018-07-08T14:33:54.348Z,1.60
2018-07-08T14:36:22.452Z,1.07
2018-07-08T14:38:50.633Z,1.00
2018-07-08T14:41:18.724Z,1.05
2018-07-08T14:43:46.866Z,0.70
2018-07-08T14:46:15.054Z,1.00
2018-07-08T14:48:43.032Z,0.90
2018-07-08T14:51:11.132Z,1.00
2018-07-08T14:53:39.205Z,0.90
2018-07-08T14:56:07.287Z,0.93
2018-07-08T14:58:35.351Z,0.70
2018-07-08T15:01:03.603Z,0.90
2018-07-08T15:03:31.993Z,1.17
2018-07-08T15:06:00.088Z,1.00
2018-07-08T15:08:28.255Z,1.10
2018-07-08T15:10:56.423Z,1.12
2018-07-08T15:13:24.570Z,1.10
2018-07-08T15:15:52.833Z,1.00
2018-07-08T15:18:20.833Z,1.10
2018-07-08T15:20:48.978Z,1.03
2018-07-08T15:23:17.024Z,1.10
2018-07-08T15:25:45.124Z,1.42
2018-07-08T15:28:13.191Z,0.85
2018-07-08T15:33:32.222Z,0.80
2018-07-08T15:36:00.300Z,0.90
2018-07-08T15:38:28.344Z,1.00
2018-07-08T15:40:56.419Z,1.20
2018-07-08T15:43:24.539Z,0.90
2018-07-08T15:45:52.620Z,1.20
2018-07-08T15:48:20.660Z,1.40
2018-07-08T15:50:48.742Z,0.90
2018-07-08T15:53:16.803Z,1.30
2018-07-08T15:55:44.880Z,1.00
2018-07-08T15:58:13.043Z,1.22
2018-07-08T16:00:41.156Z,1.15
2018-07-08T16:03:09.218Z,1.15
2018-07-08T16:05:37.359Z,0.90
2018-07-08T16:08:05.535Z,1.10
2018-07-08T16:10:33.599Z,0.88
2018-07-08T16:13:02.268Z,1.27
2018-07-08T16:15:30.343Z,1.20
2018-07-08T16:17:58.557Z,0.93
2018-07-08T16:20:26.639Z,1.40
2018-07-08T16:22:55.040Z,1.20
2018-07-08T16:25:23.414Z,1.67
2018-07-08T16:27:51.550Z,1.33
2018-07-08T16:30:19.613Z,1.07
2018-07-08T16:32:47.746Z,1.43
2018-07-08T16:35:15.807Z,1.55
2018-07-08T16:37:43.855Z,1.37
2018-07-08T16:40:14.738Z,1.12
2018-07-08T16:42:43.538Z,1.25
2018-07-08T16:45:11.650Z,1.50
2018-07-08T16:47:39.821Z,1.70
2018-07-08T16:50:07.899Z,1.47
2018-07-08T16:52:35.946Z,1.10
2018-07-08T16:55:04.019Z,1.33
2018-07-08T16:57:32.513Z,1.47
2018-07-08T17:00:00.663Z,1.50
2018-07-08T17:02:28.825Z,1.23
2018-07-08T17:04:56.960Z,1.40
2018-07-08T17:07:25.029Z,1.40
2018-07-08T17:09:53.100Z,1.37
2018-07-08T17:12:21.151Z,1.40
2018-07-08T17:14:49.218Z,1.50
2018-07-08T17:17:17.285Z,1.37
2018-07-08T17:19:45.392Z,1.53
2018-07-08T17:22:13.591Z,2.57
2018-07-08T17:24:42.808Z,2.08
2018-07-08T17:27:10.885Z,1.90
2018-07-08T17:29:39.004Z,1.77
2018-07-08T17:32:07.104Z,2.30
2018-07-08T17:34:35.156Z,2.00
2018-07-08T17:37:03.235Z,2.00
2018-07-08T17:39:31.377Z,1.60
2018-07-08T17:41:59.483Z,3.03
2018-07-08T17:44:27.588Z,4.00
2018-07-08T17:46:55.643Z,2.10
2018-07-08T17:49:23.711Z,2.23
2018-07-08T17:51:51.791Z,2.23
2018-07-08T17:54:21.407Z,2.55
2018-07-08T17:56:49.452Z,2.37
2018-07-08T17:59:17.551Z,1.70
2018-07-08T18:01:45.607Z,1.90
2018-07-08T18:04:13.762Z,1.60
2018-07-08T18:06:41.876Z,2.40
2018-07-08T18:09:09.976Z,1.97
2018-07-08T18:11:38.048Z,2.10
2018-07-08T18:14:06.300Z,2.00
2018-07-08T18:16:34.462Z,1.90
2018-07-08T18:19:02.783Z,1.70
2018-07-08T18:21:30.894Z,1.50
2018-07-08T18:23:59.279Z,2.00
2018-07-08T18:26:27.342Z,1.83
2018-07-08T18:28:55.459Z,1.50
2018-07-08T18:31:23.641Z,1.40
2018-07-08T18:33:51.731Z,1.50
2018-07-08T18:36:19.840Z,1.50
2018-07-08T18:38:47.997Z,1.60
2018-07-08T18:41:16.054Z,1.23
2018-07-08T18:43:44.125Z,1.47
2018-07-08T18:46:12.193Z,1.75
2018-07-08T18:48:40.303Z,2.08
2018-07-08T18:51:08.371Z,1.80
2018-07-08T18:53:36.861Z,2.00
2018-07-08T18:56:05.029Z,1.15
2018-07-08T18:58:33.078Z,1.80
2018-07-08T19:01:01.201Z,1.40
2018-07-08T19:03:29.322Z,2.00
2018-07-08T19:05:57.376Z,1.70
2018-07-08T19:08:25.431Z,1.47
2018-07-08T19:10:53.484Z,2.13
2018-07-08T19:13:21.578Z,1.30
2018-07-08T19:15:49.739Z,1.80
2018-07-08T19:18:17.861Z,1.57
2018-07-08T19:20:45.976Z,1.67
2018-07-08T19:23:14.044Z,1.50
2018-07-08T19:25:42.191Z,2.00
2018-07-08T19:28:10.259Z,1.17
2018-07-08T19:30:38.362Z,1.60
2018-07-08T19:33:06.448Z,1.50
2018-07-08T19:35:34.509Z,1.43
2018-07-08T19:38:03.028Z,1.82
2018-07-08T19:40:31.131Z,1.70
2018-07-08T19:42:59.235Z,5.13
2018-07-08T19:45:27.304Z,1.80
2018-07-08T19:47:55.451Z,1.40
2018-07-08T19:50:23.567Z,1.60
2018-07-08T19:52:51.668Z,1.70
2018-07-08T19:55:19.723Z,1.73
2018-07-08T19:57:47.880Z,1.23
2018-07-08T20:00:15.980Z,1.70
2018-07-08T20:02:44.048Z,1.67
2018-07-08T20:05:12.099Z,1.32
2018-07-08T20:07:40.220Z,1.40
2018-07-08T20:10:08.207Z,1.73
2018-07-08T20:12:36.277Z,1.67
2018-07-08T20:15:04.334Z,1.70
2018-07-08T20:17:33.321Z,1.50
2018-07-08T20:20:01.390Z,1.27
2018-07-08T20:22:29.466Z,1.50
2018-07-08T20:24:57.542Z,1.30
2018-07-08T20:27:25.590Z,1.30
2018-07-08T20:29:53.644Z,1.37
2018-07-08T20:32:21.788Z,1.70
2018-07-08T20:34:49.851Z,1.80
2018-07-08T20:37:17.952Z,1.60
2018-07-08T20:39:46.008Z,1.67
2018-07-08T20:42:14.094Z,1.82
2018-07-08T20:44:42.167Z,1.57
2018-07-08T20:47:10.245Z,1.40
2018-07-08T20:49:38.339Z,1.40
2018-07-08T20:52:06.383Z,1.40
2018-07-08T20:54:34.443Z,1.60
2018-07-08T20:57:03.621Z,2.00
2018-07-08T20:59:31.843Z,1.57
2018-07-08T21:01:59.943Z,1.50
2018-07-08T21:04:28.020Z,1.40
2018-07-08T21:06:56.089Z,1.80
2018-07-08T21:09:24.176Z,1.60
2018-07-08T21:11:52.274Z,1.67
2018-07-08T21:14:20.347Z,1.93
2018-07-08T21:16:48.423Z,1.72
2018-07-08T21:19:16.540Z,2.20
2018-07-08T21:21:44.587Z,2.33
2018-07-08T21:24:12.659Z,1.98
2018-07-08T21:26:40.711Z,1.70
2018-07-08T21:29:08.789Z,2.20
2018-07-08T21:31:36.857Z,2.00
2018-07-08T21:34:04.920Z,1.70
2018-07-08T21:36:33.497Z,1.87
2018-07-08T21:39:01.554Z,2.00
2018-07-08T21:41:29.619Z,1.90
2018-07-08T21:43:57.667Z,1.70
2018-07-08T21:46:25.728Z,2.00
2018-07-08T21:48:53.798Z,1.73
2018-07-08T21:51:21.864Z,1.83
2018-07-08T21:53:49.946Z,1.57
2018-07-08T21:56:18.050Z,1.67
2018-07-08T21:58:46.152Z,1.82
2018-07-08T22:01:16.204Z,1.60
2018-07-08T22:03:44.923Z,1.60
2018-07-08T22:06:13.528Z,1.77
2018-07-08T22:08:41.591Z,1.57
2018-07-08T22:11:10.167Z,1.77
2018-07-08T22:13:38.849Z,1.37
2018-07-08T22:16:07.049Z,1.83
2018-07-08T22:18:35.476Z,1.80
2018-07-08T22:21:04.295Z,1.70
2018-07-08T22:23:32.768Z,3.23
2018-07-08T22:26:01.209Z,1.60
2018-07-08T22:28:29.417Z,1.83
2018-07-08T22:30:57.477Z,2.00
2018-07-08T22:33:25.579Z,1.70
2018-07-08T22:35:53.654Z,3.20
2018-07-08T22:38:21.834Z,6.57
2018-07-08T22:40:49.939Z,3.77
2018-07-08T22:43:18.060Z,2.77
2018-07-08T22:45:46.146Z,2.07
2018-07-08T22:48:14.251Z,1.60
2018-07-08T22:50:42.291Z,2.17
2018-07-08T22:53:10.367Z,2.65
2018-07-08T22:55:38.416Z,1.87
2018-07-08T22:58:06.550Z,2.37
2018-07-08T23:00:46.020Z,1.93
2018-07-08T23:04:25.149Z,1.77
2018-07-08T23:06:53.294Z,1.47
2018-07-08T23:09:22.077Z,1.77
2018-07-08T23:11:50.788Z,1.77
2018-07-08T23:14:20.592Z,1.87
2018-07-08T23:16:51.257Z,1.85
2018-07-08T23:19:19.687Z,1.50
2018-07-08T23:21:48.446Z,1.33
2018-07-08T23:24:16.542Z,1.50
2018-07-08T23:26:44.680Z,1.67
2018-07-08T23:29:12.740Z,1.57
2018-07-08T23:31:40.875Z,1.52
2018-07-08T23:34:08.900Z,1.30
2018-07-08T23:36:37.595Z,1.43
2018-07-08T23:39:06.131Z,1.30
2018-07-08T23:41:34.574Z,1.30
2018-07-08T23:44:02.688Z,1.77
2018-07-08T23:46:30.810Z,1.37
2018-07-08T23:48:59.796Z,1.53
2018-07-08T23:51:28.155Z,1.55
2018-07-08T23:53:56.289Z,1.37
2018-07-08T23:56:24.611Z,1.40
2018-07-08T23:58:52.999Z,1.40
